Time,TemperatureF,DewpointF,PressureIn,WindDirection,WindDirectionDegrees,WindSpeedMPH,WindSpeedGustMPH,Humidity,HourlyPrecipIn,Conditions,Clouds,dailyrainin,SoftwareType,DateUTC
2013-02-20 00:05:00,6.5,-0.6,30.15,NW,315,1.0,6.0,72,0.00,,,-99.99,WeatherLink 5.7,2013-02-20 06:05:00,
2013-02-20 00:20:00,6.3,-0.8,30.16,NW,315,1.0,7.0,72,0.00,,,-99.99,WeatherLink 5.7,2013-02-20 06:20:00,
2013-02-20 00:35:00,6.1,-1.0,30.16,WNW,292,2.0,9.0,72,0.00,,,-99.99,WeatherLink 5.7,2013-02-20 06:35:00,
2013-02-20 00:50:00,6.0,-1.1,30.17,WNW,292,2.0,7.0,72,0.00,,,-99.99,WeatherLink 5.7,2013-02-20 06:50:00,
2013-02-20 01:05:00,5.8,-1.3,30.18,WNW,292,2.0,9.0,72,0.00,,,-99.99,WeatherLink 5.7,2013-02-20 07:05:00,
2013-02-20 01:20:00,5.6,-1.5,30.18,WNW,292,3.0,11.0,72,0.00,,,-99.99,WeatherLink 5.7,2013-02-20 07:20:00,
2013-02-20 01:35:00,5.4,-2.0,30.19,WNW,292,3.0,12.0,71,0.00,,,-99.99,WeatherLink 5.7,2013-02-20 07:35:00,
2013-02-20 01:50:00,5.4,-2.0,30.20,WNW,292,2.0,12.0,71,0.00,,,-99.99,WeatherLink 5.7,2013-02-20 07:50:00,
2013-02-20 02:05:00,5.4,-2.0,30.20,NNW,337,3.0,11.0,71,0.00,,,-99.99,WeatherLink 5.7,2013-02-20 08:05:00,
2013-02-20 02:20:00,5.2,-2.2,30.20,NW,315,2.0,7.0,71,0.00,,,-99.99,WeatherLink 5.7,2013-02-20 08:20:00,
2013-02-20 02:35:00,5.2,-2.2,30.19,NW,315,3.0,11.0,71,0.00,,,-99.99,WeatherLink 5.7,2013-02-20 08:35:00,
2013-02-20 02:50:00,5.2,-2.2,30.19,NW,315,3.0,6.0,71,0.00,,,-99.99,WeatherLink 5.7,2013-02-20 08:50:00,
2013-02-20 03:05:00,5.2,-2.2,30.20,NW,315,2.0,9.0,71,0.00,,,-99.99,WeatherLink 5.7,2013-02-20 09:05:00,
2013-02-20 03:20:00,5.2,-2.5,30.21,NW,315,2.0,9.0,70,0.00,,,-99.99,WeatherLink 5.7,2013-02-20 09:20:00,
2013-02-20 03:35:00,5.0,-2.4,30.21,NW,315,2.0,9.0,71,0.00,,,-99.99,WeatherLink 5.7,2013-02-20 09:35:00,
2013-02-20 03:50:00,5.0,-2.7,30.22,NW,315,2.0,7.0,70,0.00,,,-99.99,WeatherLink 5.7,2013-02-20 09:50:00,
2013-02-20 04:05:00,4.8,-2.5,30.22,NW,315,2.0,9.0,71,0.00,,,-99.99,WeatherLink 5.7,2013-02-20 10:05:00,
2013-02-20 04:20:00,4.8,-2.5,30.23,NW,315,2.0,9.0,71,0.00,,,-99.99,WeatherLink 5.7,2013-02-20 10:20:00,
2013-02-20 04:35:00,4.8,-2.8,30.23,NW,315,3.0,8.0,70,0.00,,,-99.99,WeatherLink 5.7,2013-02-20 10:35:00,
2013-02-20 04:50:00,4.8,-2.8,30.23,NW,315,3.0,10.0,70,0.00,,,-99.99,WeatherLink 5.7,2013-02-20 10:50:00,
2013-02-20 05:05:00,4.7,-2.9,30.24,NW,315,2.0,14.0,70,0.00,,,-99.99,WeatherLink 5.7,2013-02-20 11:05:00,
2013-02-20 05:20:00,4.7,-2.9,30.23,NW,315,2.0,7.0,70,0.00,,,-99.99,WeatherLink 5.7,2013-02-20 11:20:00,
2013-02-20 05:35:00,4.7,-2.9,30.23,NW,315,2.0,7.0,70,0.00,,,-99.99,WeatherLink 5.7,2013-02-20 11:35:00,
2013-02-20 05:50:00,4.7,-2.9,30.23,NW,315,2.0,6.0,70,0.00,,,-99.99,WeatherLink 5.7,2013-02-20 11:50:00,
2013-02-20 06:05:00,4.5,-3.1,30.23,NW,315,2.0,5.0,70,0.00,,,-99.99,WeatherLink 5.7,2013-02-20 12:05:00,
2013-02-20 06:20:00,4.5,-3.1,30.24,NW,315,2.0,7.0,70,0.00,,,-99.99,WeatherLink 5.7,2013-02-20 12:20:00,
2013-02-20 06:35:00,4.5,-2.8,30.24,NW,315,2.0,6.0,71,0.00,,,-99.99,WeatherLink 5.7,2013-02-20 12:35:00,
2013-02-20 06:50:00,4.3,-3.0,30.25,NW,315,2.0,5.0,71,0.00,,,-99.99,WeatherLink 5.7,2013-02-20 12:50:00,
2013-02-20 07:05:00,4.3,-3.0,30.25,NW,315,2.0,6.0,71,0.00,,,-99.99,WeatherLink 5.7,2013-02-20 13:05:00,
2013-02-20 07:20:00,4.5,-2.8,30.25,NW,315,2.0,6.0,71,0.00,,,-99.99,WeatherLink 5.7,2013-02-20 13:20:00,
2013-02-20 07:35:00,4.8,-2.5,30.25,NW,315,1.0,5.0,71,0.00,,,-99.99,WeatherLink 5.7,2013-02-20 13:35:00,
2013-02-20 07:50:00,5.2,-2.2,30.25,NW,315,2.0,6.0,71,0.00,,,-99.99,WeatherLink 5.7,2013-02-20 13:50:00,
2013-02-20 08:05:00,6.0,-1.4,30.26,WNW,292,2.0,5.0,71,0.00,,,-99.99,WeatherLink 5.7,2013-02-20 14:05:00,
2013-02-20 08:20:00,6.9,-0.5,30.26,NNW,337,3.0,7.0,71,0.00,,,-99.99,WeatherLink 5.7,2013-02-20 14:20:00,
2013-02-20 08:35:00,7.6,-0.1,30.26,NNW,337,3.0,7.0,70,0.00,,,-99.99,WeatherLink 5.7,2013-02-20 14:35:00,
2013-02-20 08:50:00,8.1,0.3,30.27,NW,315,3.0,6.0,70,0.00,,,-99.99,WeatherLink 5.7,2013-02-20 14:50:00,
2013-02-20 09:05:00,8.8,1.0,30.27,NNW,337,3.0,6.0,70,0.00,,,-99.99,WeatherLink 5.7,2013-02-20 15:05:00,
2013-02-20 09:20:00,9.5,1.7,30.28,NNW,337,3.0,6.0,70,0.00,,,-99.99,WeatherLink 5.7,2013-02-20 15:20:00,
2013-02-20 09:35:00,10.0,2.2,30.28,NNW,337,3.0,7.0,70,0.00,,,-99.99,WeatherLink 5.7,2013-02-20 15:35:00,
2013-02-20 09:50:00,10.7,2.8,30.28,NNW,337,3.0,7.0,70,0.00,,,-99.99,WeatherLink 5.7,2013-02-20 15:50:00,
2013-02-20 10:05:00,11.6,3.4,30.29,NNW,337,3.0,6.0,69,0.00,,,-99.99,WeatherLink 5.7,2013-02-20 16:05:00,
2013-02-20 10:21:00,12.4,4.2,30.29,NNW,337,3.0,5.0,69,0.00,,,-99.99,WeatherLink 5.7,2013-02-20 16:21:00,
2013-02-20 10:35:00,13.3,5.0,30.29,NNW,337,2.0,7.0,69,0.00,,,-99.99,WeatherLink 5.7,2013-02-20 16:35:00,
2013-02-20 10:50:00,13.8,5.5,30.29,NNW,337,3.0,7.0,69,0.00,,,-99.99,WeatherLink 5.7,2013-02-20 16:50:00,
2013-02-20 11:05:00,14.3,6.0,30.29,NNW,337,3.0,7.0,69,0.00,,,-99.99,WeatherLink 5.7,2013-02-20 17:05:00,
2013-02-20 11:20:00,14.6,6.0,30.29,NNW,337,3.0,7.0,68,0.00,,,-99.99,WeatherLink 5.7,2013-02-20 17:20:00,
2013-02-20 11:35:00,15.2,6.2,30.29,NNW,337,3.0,6.0,67,0.00,,,-99.99,WeatherLink 5.7,2013-02-20 17:35:00,
2013-02-20 11:50:00,15.7,6.7,30.29,NNW,337,2.0,6.0,67,0.00,,,-99.99,WeatherLink 5.7,2013-02-20 17:50:00,
2013-02-20 12:05:00,16.2,6.8,30.27,NNW,337,2.0,5.0,66,0.00,,,-99.99,WeatherLink 5.7,2013-02-20 18:05:00,
2013-02-20 12:20:00,16.4,7.3,30.26,North,0,2.0,6.0,67,0.00,,,-99.99,WeatherLink 5.7,2013-02-20 18:20:00,
2013-02-20 12:35:00,16.5,7.4,30.27,NNW,337,2.0,7.0,67,0.00,,,-99.99,WeatherLink 5.7,2013-02-20 18:35:00,
2013-02-20 12:50:00,17.0,8.3,30.29,NNW,337,2.0,6.0,68,0.00,,,-99.99,WeatherLink 5.7,2013-02-20 18:50:00,
2013-02-20 13:05:00,17.3,7.9,30.31,WNW,292,2.0,10.0,66,0.00,,,-99.99,WeatherLink 5.7,2013-02-20 19:05:00,
2013-02-20 13:20:00,17.3,7.5,30.31,West,270,2.0,9.0,65,0.00,,,-99.99,WeatherLink 5.7,2013-02-20 19:20:00,
2013-02-20 13:35:00,18.1,8.3,30.32,NW,315,3.0,10.0,65,0.00,,,-99.99,WeatherLink 5.7,2013-02-20 19:35:00,
2013-02-20 13:50:00,18.4,8.6,30.31,NW,315,2.0,9.0,65,0.00,,,-99.99,WeatherLink 5.7,2013-02-20 19:50:00,
2013-02-20 14:05:00,18.4,8.6,30.31,WNW,292,3.0,13.0,65,0.00,,,-99.99,WeatherLink 5.7,2013-02-20 20:05:00,
2013-02-20 14:20:00,18.9,9.1,30.31,WNW,292,2.0,12.0,65,0.00,,,-99.99,WeatherLink 5.7,2013-02-20 20:20:00,
2013-02-20 14:35:00,18.9,8.7,30.29,WNW,292,3.0,12.0,64,0.00,,,-99.99,WeatherLink 5.7,2013-02-20 20:35:00,
2013-02-20 14:50:00,19.2,9.0,30.29,WNW,292,2.0,6.0,64,0.00,,,-99.99,WeatherLink 5.7,2013-02-20 20:50:00,
2013-02-20 15:05:00,19.5,9.3,30.28,NW,315,2.0,7.0,64,0.00,,,-99.99,WeatherLink 5.7,2013-02-20 21:05:00,
2013-02-20 15:20:00,19.7,9.5,30.28,NNW,337,2.0,6.0,64,0.00,,,-99.99,WeatherLink 5.7,2013-02-20 21:20:00,
2013-02-20 15:35:00,19.9,9.7,30.27,NNW,337,1.0,4.0,64,0.00,,,-99.99,WeatherLink 5.7,2013-02-20 21:35:00,
2013-02-20 15:50:00,20.0,9.8,30.28,NNW,337,2.0,6.0,64,0.00,,,-99.99,WeatherLink 5.7,2013-02-20 21:50:00,
2013-02-20 16:05:00,20.3,10.1,30.27,NNW,337,1.0,6.0,64,0.00,,,-99.99,WeatherLink 5.7,2013-02-20 22:05:00,
2013-02-20 16:20:00,20.2,10.0,30.27,NNW,337,1.0,5.0,64,0.00,,,-99.99,WeatherLink 5.7,2013-02-20 22:20:00,
2013-02-20 16:35:00,20.2,10.3,30.26,NNW,337,1.0,4.0,65,0.00,,,-99.99,WeatherLink 5.7,2013-02-20 22:35:00,
2013-02-20 16:50:00,20.3,10.4,30.27,NNW,337,1.0,4.0,65,0.00,,,-99.99,WeatherLink 5.7,2013-02-20 22:50:00,
2013-02-20 17:05:00,19.9,10.0,30.27,NNW,337,0.0,3.0,65,0.00,,,-99.99,WeatherLink 5.7,2013-02-20 23:05:00,
2013-02-20 17:20:00,19.4,9.5,30.28,North,-999,0.0,0.0,65,0.00,,,-99.99,WeatherLink 5.7,2013-02-20 23:20:00,
2013-02-20 17:35:00,18.8,9.6,30.28,North,-999,0.0,0.0,67,0.00,,,-99.99,WeatherLink 5.7,2013-02-20 23:35:00,
2013-02-20 17:50:00,18.1,9.3,30.28,North,-999,0.0,0.0,68,0.00,,,-99.99,WeatherLink 5.7,2013-02-20 23:50:00,
2013-02-20 18:05:00,17.3,8.5,30.29,North,-999,0.0,0.0,68,0.00,,,-99.99,WeatherLink 5.7,2013-02-21 00:05:00,
2013-02-20 18:20:00,16.4,8.3,30.29,North,-999,0.0,0.0,70,0.00,,,-99.99,WeatherLink 5.7,2013-02-21 00:20:00,
2013-02-20 18:35:00,15.6,7.9,30.29,North,-999,0.0,0.0,71,0.00,,,-99.99,WeatherLink 5.7,2013-02-21 00:35:00,
2013-02-20 18:50:00,15.2,7.8,30.29,North,-999,0.0,0.0,72,0.00,,,-99.99,WeatherLink 5.7,2013-02-21 00:50:00,
2013-02-20 19:05:00,14.3,7.2,30.28,North,-999,0.0,0.0,73,0.00,,,-99.99,WeatherLink 5.7,2013-02-21 01:05:00,
2013-02-20 19:20:00,13.6,7.1,30.28,North,-999,0.0,0.0,75,0.00,,,-99.99,WeatherLink 5.7,2013-02-21 01:20:00,
2013-02-20 19:36:00,13.5,7.3,30.28,North,-999,0.0,0.0,76,0.00,,,-99.99,WeatherLink 5.7,2013-02-21 01:36:00,
2013-02-20 19:51:00,13.1,7.2,30.29,North,-999,0.0,0.0,77,0.00,,,-99.99,WeatherLink 5.7,2013-02-21 01:51:00,
2013-02-20 20:06:00,12.8,7.2,30.29,North,-999,0.0,0.0,78,0.00,,,-99.99,WeatherLink 5.7,2013-02-21 02:06:00,
2013-02-20 20:23:00,12.4,6.8,30.28,NNW,337,0.0,1.0,78,0.00,,,-99.99,WeatherLink 5.7,2013-02-21 02:23:00,
2013-02-20 20:35:00,11.4,5.9,30.28,North,-999,0.0,0.0,78,0.00,,,-99.99,WeatherLink 5.7,2013-02-21 02:35:00,
2013-02-20 20:50:00,10.7,5.2,30.29,North,-999,0.0,0.0,78,0.00,,,-99.99,WeatherLink 5.7,2013-02-21 02:50:00,
2013-02-20 21:05:00,10.4,5.2,30.29,North,-999,0.0,0.0,79,0.00,,,-99.99,WeatherLink 5.7,2013-02-21 03:05:00,
2013-02-20 21:20:00,10.0,4.8,30.29,North,-999,0.0,0.0,79,0.00,,,-99.99,WeatherLink 5.7,2013-02-21 03:20:00,
2013-02-20 21:35:00,10.4,5.5,30.29,North,-999,0.0,0.0,80,0.00,,,-99.99,WeatherLink 5.7,2013-02-21 03:35:00,
2013-02-20 21:50:00,9.9,5.0,30.29,North,-999,0.0,0.0,80,0.00,,,-99.99,WeatherLink 5.7,2013-02-21 03:50:00,
2013-02-20 22:05:00,9.7,5.0,30.29,North,-999,0.0,0.0,81,0.00,,,-99.99,WeatherLink 5.7,2013-02-21 04:05:00,
2013-02-20 22:20:00,9.5,4.8,30.29,North,-999,0.0,0.0,81,0.00,,,-99.99,WeatherLink 5.7,2013-02-21 04:20:00,
2013-02-20 22:35:00,9.2,4.6,30.29,North,-999,0.0,0.0,81,0.00,,,-99.99,WeatherLink 5.7,2013-02-21 04:35:00,
2013-02-20 22:50:00,8.8,4.2,30.30,North,-999,0.0,0.0,81,0.00,,,-99.99,WeatherLink 5.7,2013-02-21 04:50:00,
2013-02-20 23:05:00,8.4,4.0,30.30,North,-999,0.0,0.0,82,0.00,,,-99.99,WeatherLink 5.7,2013-02-21 05:05:00,
2013-02-20 23:20:00,8.3,3.9,30.30,North,-999,0.0,0.0,82,0.00,,,-99.99,WeatherLink 5.7,2013-02-21 05:20:00,
2013-02-20 23:35:00,8.1,3.7,30.30,North,-999,0.0,0.0,82,0.00,,,-99.99,WeatherLink 5.7,2013-02-21 05:35:00,
2013-02-20 23:45:00,8.3,3.9,30.30,North,-999,0.0,0.0,82,0.00,,,-99.99,WeatherLink 5.7,2013-02-21 05:45:00,